sensor_id;sensor_type;location;lat;lon;timestamp;pressure;altitude;pressure_sealevel;temperature;humidity
47220;BME280;32961;51.936;4.788;2023-05-20T00:01:21;102524.38;;;12.45;75.76
47220;BME280;32961;51.936;4.788;2023-05-20T00:03:49;102515.56;;;12.42;75.38
47220;BME280;32961;51.936;4.788;2023-05-20T00:06:17;102513.41;;;12.34;75.89
47220;BME280;32961;51.936;4.788;2023-05-20T00:08:46;102518.88;;;12.34;76.15
47220;BME280;32961;51.936;4.788;2023-05-20T00:11:14;102516.25;;;12.32;75.85
47220;BME280;32961;51.936;4.788;2023-05-20T00:13:42;102512.91;;;12.29;76.26
47220;BME280;32961;51.936;4.788;2023-05-20T00:16:09;102516.59;;;12.28;75.96
47220;BME280;32961;51.936;4.788;2023-05-20T00:18:37;102518.69;;;12.24;76.00
47220;BME280;32961;51.936;4.788;2023-05-20T00:21:05;102520.66;;;12.22;75.72
47220;BME280;32961;51.936;4.788;2023-05-20T00:23:33;102518.69;;;12.24;76.11
47220;BME280;32961;51.936;4.788;2023-05-20T00:26:02;102516.53;;;12.16;76.18
47220;BME280;32961;51.936;4.788;2023-05-20T00:28:30;102521.09;;;12.16;76.35
47220;BME280;32961;51.936;4.788;2023-05-20T00:30:58;102522.09;;;12.15;75.96
47220;BME280;32961;51.936;4.788;2023-05-20T00:33:26;102520.88;;;12.19;75.72
47220;BME280;32961;51.936;4.788;2023-05-20T00:35:54;102513.16;;;12.13;75.81
47220;BME280;32961;51.936;4.788;2023-05-20T00:38:22;102516.00;;;12.11;76.19
47220;BME280;32961;51.936;4.788;2023-05-20T00:40:49;102510.44;;;12.13;75.93
47220;BME280;32961;51.936;4.788;2023-05-20T00:43:19;102505.97;;;12.12;75.85
47220;BME280;32961;51.936;4.788;2023-05-20T00:45:48;102508.91;;;12.09;75.77
47220;BME280;32961;51.936;4.788;2023-05-20T00:48:17;102498.03;;;12.09;75.84
47220;BME280;32961;51.936;4.788;2023-05-20T00:50:45;102504.44;;;12.08;75.80
47220;BME280;32961;51.936;4.788;2023-05-20T00:53:15;102500.88;;;12.07;75.63
47220;BME280;32961;51.936;4.788;2023-05-20T00:55:44;102490.31;;;12.02;75.68
47220;BME280;32961;51.936;4.788;2023-05-20T00:58:12;102498.47;;;12.02;76.29
47220;BME280;32961;51.936;4.788;2023-05-20T01:00:41;102493.28;;;11.99;76.30
47220;BME280;32961;51.936;4.788;2023-05-20T01:03:09;102500.84;;;11.94;76.07
47220;BME280;32961;51.936;4.788;2023-05-20T01:05:37;102493.47;;;11.96;76.35
47220;BME280;32961;51.936;4.788;2023-05-20T01:08:08;102494.88;;;11.89;76.44
47220;BME280;32961;51.936;4.788;2023-05-20T01:10:38;102493.91;;;11.90;76.43
47220;BME280;32961;51.936;4.788;2023-05-20T01:13:10;102497.50;;;11.91;76.39
47220;BME280;32961;51.936;4.788;2023-05-20T01:15:45;102498.38;;;11.91;76.11
47220;BME280;32961;51.936;4.788;2023-05-20T01:18:15;102497.59;;;11.89;76.83
47220;BME280;32961;51.936;4.788;2023-05-20T01:20:46;102498.69;;;11.86;76.66
47220;BME280;32961;51.936;4.788;2023-05-20T01:23:17;102481.06;;;11.79;77.08
47220;BME280;32961;51.936;4.788;2023-05-20T01:25:45;102483.59;;;11.82;76.83
47220;BME280;32961;51.936;4.788;2023-05-20T01:28:13;102483.91;;;11.78;77.57
47220;BME280;32961;51.936;4.788;2023-05-20T01:30:55;102479.88;;;11.70;77.35
47220;BME280;32961;51.936;4.788;2023-05-20T01:33:27;102480.41;;;11.76;77.69
47220;BME280;32961;51.936;4.788;2023-05-20T01:35:56;102474.22;;;11.74;77.65
47220;BME280;32961;51.936;4.788;2023-05-20T01:38:26;102466.16;;;11.72;78.09
47220;BME280;32961;51.936;4.788;2023-05-20T01:40:56;102462.56;;;11.71;78.00
47220;BME280;32961;51.936;4.788;2023-05-20T01:43:24;102452.34;;;11.62;78.75
47220;BME280;32961;51.936;4.788;2023-05-20T01:45:53;102470.44;;;11.63;79.62
47220;BME280;32961;51.936;4.788;2023-05-20T01:48:20;102463.66;;;11.69;78.83
47220;BME280;32961;51.936;4.788;2023-05-20T01:50:48;102462.06;;;11.66;79.05
47220;BME280;32961;51.936;4.788;2023-05-20T01:53:16;102464.13;;;11.63;79.22
47220;BME280;32961;51.936;4.788;2023-05-20T01:55:45;102461.16;;;11.66;79.28
47220;BME280;32961;51.936;4.788;2023-05-20T01:58:13;102457.16;;;11.59;79.63
47220;BME280;32961;51.936;4.788;2023-05-20T02:00:41;102461.84;;;11.56;79.92
47220;BME280;32961;51.936;4.788;2023-05-20T02:03:09;102453.69;;;11.56;80.08
47220;BME280;32961;51.936;4.788;2023-05-20T02:05:37;102464.44;;;11.58;80.38
47220;BME280;32961;51.936;4.788;2023-05-20T02:08:05;102454.78;;;11.54;80.54
47220;BME280;32961;51.936;4.788;2023-05-20T02:10:33;102453.34;;;11.48;80.92
47220;BME280;32961;51.936;4.788;2023-05-20T02:13:03;102459.56;;;11.50;81.04
47220;BME280;32961;51.936;4.788;2023-05-20T02:15:31;102450.75;;;11.47;81.07
47220;BME280;32961;51.936;4.788;2023-05-20T02:17:59;102459.66;;;11.49;81.24
47220;BME280;32961;51.936;4.788;2023-05-20T02:20:28;102462.63;;;11.46;81.43
47220;BME280;32961;51.936;4.788;2023-05-20T02:22:55;102460.88;;;11.45;81.30
47220;BME280;32961;51.936;4.788;2023-05-20T02:25:23;102456.19;;;11.47;80.67
47220;BME280;32961;51.936;4.788;2023-05-20T02:27:51;102457.38;;;11.43;81.06
47220;BME280;32961;51.936;4.788;2023-05-20T02:30:20;102456.72;;;11.39;81.44
47220;BME280;32961;51.936;4.788;2023-05-20T02:32:48;102451.53;;;11.36;81.61
47220;BME280;32961;51.936;4.788;2023-05-20T02:35:16;102451.41;;;11.37;81.68
47220;BME280;32961;51.936;4.788;2023-05-20T02:37:44;102452.63;;;11.33;81.62
47220;BME280;32961;51.936;4.788;2023-05-20T02:40:13;102451.53;;;11.23;82.32
47220;BME280;32961;51.936;4.788;2023-05-20T02:42:41;102449.69;;;11.23;82.37
47220;BME280;32961;51.936;4.788;2023-05-20T02:45:09;102441.97;;;11.17;82.28
47220;BME280;32961;51.936;4.788;2023-05-20T02:47:38;102448.25;;;11.18;82.79
47220;BME280;32961;51.936;4.788;2023-05-20T02:50:07;102450.88;;;11.19;82.85
47220;BME280;32961;51.936;4.788;2023-05-20T02:52:35;102455.44;;;11.19;82.86
47220;BME280;32961;51.936;4.788;2023-05-20T02:55:03;102449.34;;;11.15;83.19
47220;BME280;32961;51.936;4.788;2023-05-20T02:57:31;102443.91;;;11.15;82.79
47220;BME280;32961;51.936;4.788;2023-05-20T03:00:02;102447.72;;;11.13;83.16
47220;BME280;32961;51.936;4.788;2023-05-20T03:02:31;102445.22;;;11.10;83.32
47220;BME280;32961;51.936;4.788;2023-05-20T03:05:00;102437.41;;;11.05;83.82
47220;BME280;32961;51.936;4.788;2023-05-20T03:07:31;102457.41;;;11.04;83.65
47220;BME280;32961;51.936;4.788;2023-05-20T03:09:59;102449.78;;;10.96;84.25
47220;BME280;32961;51.936;4.788;2023-05-20T03:12:29;102454.16;;;10.99;84.05
47220;BME280;32961;51.936;4.788;2023-05-20T03:14:57;102443.16;;;11.00;83.87
47220;BME280;32961;51.936;4.788;2023-05-20T03:17:26;102441.59;;;10.96;84.24
47220;BME280;32961;51.936;4.788;2023-05-20T03:19:54;102444.75;;;10.90;83.97
47220;BME280;32961;51.936;4.788;2023-05-20T03:22:23;102447.25;;;10.80;84.55
47220;BME280;32961;51.936;4.788;2023-05-20T03:24:51;102449.66;;;10.85;84.16
47220;BME280;32961;51.936;4.788;2023-05-20T03:27:19;102450.75;;;10.82;84.14
47220;BME280;32961;51.936;4.788;2023-05-20T03:29:48;102453.22;;;10.72;84.56
47220;BME280;32961;51.936;4.788;2023-05-20T03:32:16;102451.28;;;10.74;84.15
47220;BME280;32961;51.936;4.788;2023-05-20T03:34:44;102456.06;;;10.71;84.65
47220;BME280;32961;51.936;4.788;2023-05-20T03:37:12;102456.19;;;10.69;84.71
47220;BME280;32961;51.936;4.788;2023-05-20T03:39:41;102455.41;;;10.67;84.67
47220;BME280;32961;51.936;4.788;2023-05-20T03:42:09;102451.78;;;10.67;84.45
47220;BME280;32961;51.936;4.788;2023-05-20T03:44:37;102450.41;;;10.61;84.66
47220;BME280;32961;51.936;4.788;2023-05-20T03:47:05;102448.88;;;10.57;84.92
47220;BME280;32961;51.936;4.788;2023-05-20T03:49:33;102451.59;;;10.57;84.97
47220;BME280;32961;51.936;4.788;2023-05-20T03:52:00;102448.63;;;10.47;85.43
47220;BME280;32961;51.936;4.788;2023-05-20T03:54:28;102441.22;;;10.49;85.58
47220;BME280;32961;51.936;4.788;2023-05-20T03:56:58;102451.91;;;10.52;85.44
47220;BME280;32961;51.936;4.788;2023-05-20T03:59:28;102442.41;;;10.45;86.32
47220;BME280;32961;51.936;4.788;2023-05-20T04:01:56;102435.34;;;10.42;85.79
47220;BME280;32961;51.936;4.788;2023-05-20T04:04:24;102439.59;;;10.47;86.13
47220;BME280;32961;51.936;4.788;2023-05-20T04:06:52;102442.41;;;10.45;86.05
47220;BME280;32961;51.936;4.788;2023-05-20T04:09:20;102444.34;;;10.43;86.55
47220;BME280;32961;51.936;4.788;2023-05-20T04:11:48;102441.75;;;10.41;86.71
47220;BME280;32961;51.936;4.788;2023-05-20T04:14:17;102442.19;;;10.48;86.52
47220;BME280;32961;51.936;4.788;2023-05-20T04:16:46;102432.94;;;10.38;86.66
47220;BME280;32961;51.936;4.788;2023-05-20T04:19:15;102432.09;;;10.37;86.95
47220;BME280;32961;51.936;4.788;2023-05-20T04:21:45;102442.63;;;10.42;87.43
47220;BME280;32961;51.936;4.788;2023-05-20T04:24:13;102440.88;;;10.41;87.40
47220;BME280;32961;51.936;4.788;2023-05-20T04:26:41;102449.91;;;10.41;87.97
47220;BME280;32961;51.936;4.788;2023-05-20T04:29:08;102453.72;;;10.39;88.12
47220;BME280;32961;51.936;4.788;2023-05-20T04:31:38;102452.72;;;10.40;88.71
47220;BME280;32961;51.936;4.788;2023-05-20T04:34:06;102460.56;;;10.44;88.50
47220;BME280;32961;51.936;4.788;2023-05-20T04:36:34;102452.41;;;10.44;89.05
47220;BME280;32961;51.936;4.788;2023-05-20T04:39:03;102454.06;;;10.47;89.17
47220;BME280;32961;51.936;4.788;2023-05-20T04:41:32;102455.78;;;10.48;90.29
47220;BME280;32961;51.936;4.788;2023-05-20T04:44:01;102457.09;;;10.55;89.84
47220;BME280;32961;51.936;4.788;2023-05-20T04:46:29;102462.53;;;10.55;90.57
47220;BME280;32961;51.936;4.788;2023-05-20T04:48:59;102457.56;;;10.62;90.43
47220;BME280;32961;51.936;4.788;2023-05-20T04:51:26;102457.78;;;10.59;91.72
47220;BME280;32961;51.936;4.788;2023-05-20T04:53:55;102462.78;;;10.65;91.71
47220;BME280;32961;51.936;4.788;2023-05-20T04:56:24;102451.59;;;10.70;91.42
47220;BME280;32961;51.936;4.788;2023-05-20T04:58:52;102457.81;;;10.72;91.50
47220;BME280;32961;51.936;4.788;2023-05-20T05:01:21;102454.88;;;10.75;91.40
47220;BME280;32961;51.936;4.788;2023-05-20T05:03:49;102455.75;;;10.75;91.68
47220;BME280;32961;51.936;4.788;2023-05-20T05:06:18;102444.75;;;10.77;91.88
47220;BME280;32961;51.936;4.788;2023-05-20T05:08:46;102452.50;;;10.83;91.69
47220;BME280;32961;51.936;4.788;2023-05-20T05:11:14;102457.69;;;10.86;91.48
47220;BME280;32961;51.936;4.788;2023-05-20T05:13:41;102436.28;;;10.82;91.66
47220;BME280;32961;51.936;4.788;2023-05-20T05:16:09;102443.91;;;10.89;91.55
47220;BME280;32961;51.936;4.788;2023-05-20T05:18:37;102446.63;;;10.89;91.42
47220;BME280;32961;51.936;4.788;2023-05-20T05:21:05;102451.09;;;11.03;91.94
47220;BME280;32961;51.936;4.788;2023-05-20T05:23:34;102438.47;;;11.15;91.56
47220;BME280;32961;51.936;4.788;2023-05-20T05:26:02;102444.78;;;11.16;92.60
47220;BME280;32961;51.936;4.788;2023-05-20T05:28:30;102435.84;;;11.27;92.20
47220;BME280;32961;51.936;4.788;2023-05-20T05:30:58;102435.41;;;11.46;91.51
47220;BME280;32961;51.936;4.788;2023-05-20T05:33:27;102429.50;;;11.52;91.17
47220;BME280;32961;51.936;4.788;2023-05-20T05:35:55;102433.66;;;11.58;91.20
47220;BME280;32961;51.936;4.788;2023-05-20T05:38:24;102429.47;;;11.65;90.31
47220;BME280;32961;51.936;4.788;2023-05-20T05:40:54;102433.38;;;11.74;90.06
47220;BME280;32961;51.936;4.788;2023-05-20T05:43:21;102429.84;;;11.84;89.48
47220;BME280;32961;51.936;4.788;2023-05-20T05:45:49;102429.50;;;11.89;89.53
47220;BME280;32961;51.936;4.788;2023-05-20T05:48:17;102430.63;;;11.99;88.82
47220;BME280;32961;51.936;4.788;2023-05-20T05:50:45;102428.72;;;12.13;88.62
47220;BME280;32961;51.936;4.788;2023-05-20T05:53:16;102423.31;;;12.24;87.93
47220;BME280;32961;51.936;4.788;2023-05-20T05:55:45;102432.28;;;12.38;86.89
47220;BME280;32961;51.936;4.788;2023-05-20T05:58:14;102425.25;;;12.46;86.83
47220;BME280;32961;51.936;4.788;2023-05-20T06:00:42;102429.00;;;12.57;85.53
47220;BME280;32961;51.936;4.788;2023-05-20T06:03:10;102430.50;;;12.61;84.76
47220;BME280;32961;51.936;4.788;2023-05-20T06:05:38;102424.09;;;12.73;84.66
47220;BME280;32961;51.936;4.788;2023-05-20T06:08:06;102433.06;;;12.87;83.39
47220;BME280;32961;51.936;4.788;2023-05-20T06:10:34;102439.28;;;13.00;83.20
47220;BME280;32961;51.936;4.788;2023-05-20T06:13:02;102435.72;;;13.11;82.30
47220;BME280;32961;51.936;4.788;2023-05-20T06:15:31;102432.00;;;13.23;80.78
47220;BME280;32961;51.936;4.788;2023-05-20T06:17:59;102421.31;;;13.20;79.86
47220;BME280;32961;51.936;4.788;2023-05-20T06:20:27;102439.44;;;13.32;79.55
47220;BME280;32961;51.936;4.788;2023-05-20T06:22:55;102428.78;;;13.41;78.81
47220;BME280;32961;51.936;4.788;2023-05-20T06:25:23;102422.34;;;13.53;78.30
47220;BME280;32961;51.936;4.788;2023-05-20T06:27:51;102430.13;;;13.69;77.45
47220;BME280;32961;51.936;4.788;2023-05-20T06:30:19;102425.28;;;13.73;77.23
47220;BME280;32961;51.936;4.788;2023-05-20T06:32:48;102440.94;;;13.82;77.22
47220;BME280;32961;51.936;4.788;2023-05-20T06:35:16;102417.06;;;13.95;76.97
47220;BME280;32961;51.936;4.788;2023-05-20T06:37:44;102422.34;;;14.08;75.96
47220;BME280;32961;51.936;4.788;2023-05-20T06:40:12;102415.50;;;14.14;75.05
47220;BME280;32961;51.936;4.788;2023-05-20T06:42:40;102405.66;;;14.23;74.57
47220;BME280;32961;51.936;4.788;2023-05-20T06:45:09;102420.75;;;14.38;74.97
47220;BME280;32961;51.936;4.788;2023-05-20T06:47:37;102397.16;;;14.37;74.21
47220;BME280;32961;51.936;4.788;2023-05-20T06:50:06;102408.09;;;14.58;73.99
47220;BME280;32961;51.936;4.788;2023-05-20T06:52:34;102410.66;;;14.71;73.46
47220;BME280;32961;51.936;4.788;2023-05-20T06:55:03;102408.19;;;14.68;73.84
47220;BME280;32961;51.936;4.788;2023-05-20T06:57:31;102411.59;;;14.82;72.72
47220;BME280;32961;51.936;4.788;2023-05-20T06:59:59;102408.47;;;14.86;72.40
47220;BME280;32961;51.936;4.788;2023-05-20T07:02:27;102402.31;;;14.94;71.66
47220;BME280;32961;51.936;4.788;2023-05-20T07:04:55;102406.88;;;15.15;71.22
47220;BME280;32961;51.936;4.788;2023-05-20T07:07:24;102394.78;;;15.17;69.65
47220;BME280;32961;51.936;4.788;2023-05-20T07:09:53;102398.44;;;15.28;70.43
47220;BME280;32961;51.936;4.788;2023-05-20T07:12:21;102385.38;;;15.41;70.34
47220;BME280;32961;51.936;4.788;2023-05-20T07:14:49;102386.53;;;15.48;70.09
47220;BME280;32961;51.936;4.788;2023-05-20T07:17:17;102399.13;;;15.61;69.63
47220;BME280;32961;51.936;4.788;2023-05-20T07:19:44;102392.66;;;15.71;69.25
47220;BME280;32961;51.936;4.788;2023-05-20T07:22:12;102391.72;;;15.82;68.89
47220;BME280;32961;51.936;4.788;2023-05-20T07:24:41;102390.53;;;15.75;67.79
47220;BME280;32961;51.936;4.788;2023-05-20T07:27:09;102390.41;;;15.86;68.67
47220;BME280;32961;51.936;4.788;2023-05-20T07:29:37;102391.00;;;16.00;67.49
47220;BME280;32961;51.936;4.788;2023-05-20T07:32:07;102396.06;;;16.04;67.71
47220;BME280;32961;51.936;4.788;2023-05-20T07:34:35;102391.47;;;16.25;66.93
47220;BME280;32961;51.936;4.788;2023-05-20T07:37:03;102389.44;;;16.27;66.00
47220;BME280;32961;51.936;4.788;2023-05-20T07:39:31;102388.44;;;16.38;65.06
47220;BME280;32961;51.936;4.788;2023-05-20T07:42:01;102378.75;;;16.53;65.95
47220;BME280;32961;51.936;4.788;2023-05-20T07:44:29;102389.41;;;16.66;64.78
47220;BME280;32961;51.936;4.788;2023-05-20T07:46:56;102338.78;;;16.50;64.45
47220;BME280;32961;51.936;4.788;2023-05-20T07:49:24;102361.50;;;16.80;63.30
47220;BME280;32961;51.936;4.788;2023-05-20T07:51:53;102368.72;;;16.81;63.78
47220;BME280;32961;51.936;4.788;2023-05-20T07:54:20;102360.75;;;16.98;63.48
47220;BME280;32961;51.936;4.788;2023-05-20T07:56:48;102364.75;;;17.13;62.50
47220;BME280;32961;51.936;4.788;2023-05-20T07:59:18;102366.28;;;17.26;62.83
47220;BME280;32961;51.936;4.788;2023-05-20T08:01:46;102364.94;;;17.30;61.48
47220;BME280;32961;51.936;4.788;2023-05-20T08:04:14;102358.16;;;17.34;61.75
47220;BME280;32961;51.936;4.788;2023-05-20T08:06:42;102364.66;;;17.61;61.82
47220;BME280;32961;51.936;4.788;2023-05-20T08:09:11;102361.63;;;17.82;59.70
47220;BME280;32961;51.936;4.788;2023-05-20T08:11:39;102352.00;;;17.96;59.42
47220;BME280;32961;51.936;4.788;2023-05-20T08:14:07;102353.47;;;18.08;58.62
47220;BME280;32961;51.936;4.788;2023-05-20T08:16:36;102355.59;;;18.15;57.30
47220;BME280;32961;51.936;4.788;2023-05-20T08:19:04;102366.38;;;18.26;55.13
47220;BME280;32961;51.936;4.788;2023-05-20T08:21:32;102348.41;;;18.14;52.92
47220;BME280;32961;51.936;4.788;2023-05-20T08:24:00;102370.16;;;18.25;52.38
47220;BME280;32961;51.936;4.788;2023-05-20T08:26:28;102360.00;;;18.25;53.34
47220;BME280;32961;51.936;4.788;2023-05-20T08:28:56;102344.41;;;18.34;52.95
47220;BME280;32961;51.936;4.788;2023-05-20T08:31:24;102351.16;;;18.58;53.04
47220;BME280;32961;51.936;4.788;2023-05-20T08:33:53;102348.63;;;18.65;51.60
47220;BME280;32961;51.936;4.788;2023-05-20T08:36:21;102342.84;;;18.50;51.42
47220;BME280;32961;51.936;4.788;2023-05-20T08:38:49;102338.72;;;18.54;51.48
47220;BME280;32961;51.936;4.788;2023-05-20T08:41:17;102333.47;;;18.60;51.03
47220;BME280;32961;51.936;4.788;2023-05-20T08:43:48;102342.13;;;18.48;48.76
47220;BME280;32961;51.936;4.788;2023-05-20T08:46:17;102335.03;;;18.63;48.89
47220;BME280;32961;51.936;4.788;2023-05-20T08:48:45;102334.88;;;18.91;49.51
47220;BME280;32961;51.936;4.788;2023-05-20T08:51:15;102323.44;;;19.12;48.68
47220;BME280;32961;51.936;4.788;2023-05-20T08:53:45;102327.84;;;19.31;47.84
47220;BME280;32961;51.936;4.788;2023-05-20T08:56:13;102319.59;;;19.39;47.16
47220;BME280;32961;51.936;4.788;2023-05-20T08:58:43;102307.00;;;19.37;46.63
47220;BME280;32961;51.936;4.788;2023-05-20T09:01:12;102314.97;;;19.48;47.08
47220;BME280;32961;51.936;4.788;2023-05-20T09:03:40;102306.38;;;19.68;46.95
47220;BME280;32961;51.936;4.788;2023-05-20T09:06:09;102308.66;;;19.81;45.41
47220;BME280;32961;51.936;4.788;2023-05-20T09:08:40;102301.41;;;19.80;46.44
47220;BME280;32961;51.936;4.788;2023-05-20T09:11:08;102305.28;;;19.95;44.86
47220;BME280;32961;51.936;4.788;2023-05-20T09:13:37;102305.63;;;20.09;45.02
47220;BME280;32961;51.936;4.788;2023-05-20T09:16:05;102298.03;;;20.02;44.28
47220;BME280;32961;51.936;4.788;2023-05-20T09:18:36;102295.81;;;20.06;44.39
47220;BME280;32961;51.936;4.788;2023-05-20T09:21:05;102292.50;;;19.94;44.07
47220;BME280;32961;51.936;4.788;2023-05-20T09:23:35;102290.44;;;20.04;43.97
47220;BME280;32961;51.936;4.788;2023-05-20T09:26:05;102299.22;;;20.00;44.24
47220;BME280;32961;51.936;4.788;2023-05-20T09:28:33;102294.69;;;19.82;43.77
47220;BME280;32961;51.936;4.788;2023-05-20T09:31:04;102285.53;;;19.57;44.43
47220;BME280;32961;51.936;4.788;2023-05-20T09:33:32;102294.97;;;19.54;44.46
47220;BME280;32961;51.936;4.788;2023-05-20T09:36:02;102287.41;;;19.56;43.82
47220;BME280;32961;51.936;4.788;2023-05-20T09:38:33;102289.63;;;19.36;43.70
47220;BME280;32961;51.936;4.788;2023-05-20T09:41:07;102285.94;;;19.19;43.12
47220;BME280;32961;51.936;4.788;2023-05-20T09:43:35;102290.03;;;19.07;44.38
47220;BME280;32961;51.936;4.788;2023-05-20T09:46:03;102277.16;;;18.81;45.00
47220;BME280;32961;51.936;4.788;2023-05-20T09:48:32;102271.66;;;18.89;45.97
47220;BME280;32961;51.936;4.788;2023-05-20T09:51:03;102274.72;;;19.04;45.78
47220;BME280;32961;51.936;4.788;2023-05-20T09:53:31;102279.03;;;19.15;45.95
47220;BME280;32961;51.936;4.788;2023-05-20T09:55:59;102272.50;;;19.16;44.89
47220;BME280;32961;51.936;4.788;2023-05-20T09:58:28;102264.28;;;19.41;44.70
47220;BME280;32961;51.936;4.788;2023-05-20T10:00:56;102255.56;;;19.70;42.50
47220;BME280;32961;51.936;4.788;2023-05-20T10:03:24;102255.09;;;19.83;43.50
47220;BME280;32961;51.936;4.788;2023-05-20T10:06:02;102267.66;;;20.19;43.01
47220;BME280;32961;51.936;4.788;2023-05-20T10:08:50;102245.53;;;20.52;42.00
47220;BME280;32961;51.936;4.788;2023-05-20T10:11:27;102257.78;;;20.49;39.97
47220;BME280;32961;51.936;4.788;2023-05-20T10:14:13;102270.25;;;20.37;40.40
47220;BME280;32961;51.936;4.788;2023-05-20T10:16:48;102260.94;;;20.22;41.72
47220;BME280;32961;51.936;4.788;2023-05-20T10:19:26;102258.19;;;20.13;41.22
47220;BME280;32961;51.936;4.788;2023-05-20T10:22:00;102251.09;;;20.11;41.21
47220;BME280;32961;51.936;4.788;2023-05-20T10:24:29;102252.50;;;20.07;40.70
47220;BME280;32961;51.936;4.788;2023-05-20T10:27:00;102245.59;;;19.86;41.18
47220;BME280;32961;51.936;4.788;2023-05-20T10:29:41;102235.91;;;19.73;41.96
47220;BME280;32961;51.936;4.788;2023-05-20T10:32:09;102230.44;;;19.90;43.27
47220;BME280;32961;51.936;4.788;2023-05-20T10:34:45;102228.19;;;20.18;42.41
47220;BME280;32961;51.936;4.788;2023-05-20T10:37:23;102229.16;;;20.42;40.65
47220;BME280;32961;51.936;4.788;2023-05-20T10:40:02;102234.16;;;20.47;40.02
47220;BME280;32961;51.936;4.788;2023-05-20T10:42:30;102222.78;;;20.42;39.42
47220;BME280;32961;51.936;4.788;2023-05-20T10:44:59;102220.47;;;20.62;39.71
47220;BME280;32961;51.936;4.788;2023-05-20T10:47:27;102219.69;;;20.93;39.83
47220;BME280;32961;51.936;4.788;2023-05-20T10:49:55;102224.78;;;21.12;39.33
47220;BME280;32961;51.936;4.788;2023-05-20T10:52:23;102212.16;;;21.41;38.80
47220;BME280;32961;51.936;4.788;2023-05-20T10:54:55;102221.81;;;21.45;39.39
47220;BME280;32961;51.936;4.788;2023-05-20T10:57:25;102213.78;;;21.59;38.53
47220;BME280;32961;51.936;4.788;2023-05-20T10:59:54;102216.69;;;21.66;35.96
47220;BME280;32961;51.936;4.788;2023-05-20T11:02:23;102209.25;;;21.66;35.35
47220;BME280;32961;51.936;4.788;2023-05-20T11:04:55;102204.91;;;21.40;35.85
47220;BME280;32961;51.936;4.788;2023-05-20T11:07:24;102206.41;;;21.51;36.77
47220;BME280;32961;51.936;4.788;2023-05-20T11:09:53;102206.28;;;21.68;35.18
47220;BME280;32961;51.936;4.788;2023-05-20T11:12:21;102201.72;;;21.75;35.75
47220;BME280;32961;51.936;4.788;2023-05-20T11:14:50;102202.78;;;21.74;34.71
47220;BME280;32961;51.936;4.788;2023-05-20T11:17:18;102205.84;;;21.56;35.13
47220;BME280;32961;51.936;4.788;2023-05-20T11:19:49;102202.84;;;21.42;36.31
47220;BME280;32961;51.936;4.788;2023-05-20T11:22:17;102197.78;;;21.46;36.10
47220;BME280;32961;51.936;4.788;2023-05-20T11:24:45;102194.91;;;21.62;35.44
47220;BME280;32961;51.936;4.788;2023-05-20T11:27:13;102193.13;;;21.46;35.03
47220;BME280;32961;51.936;4.788;2023-05-20T11:29:41;102186.97;;;21.36;36.15
47220;BME280;32961;51.936;4.788;2023-05-20T11:32:09;102184.47;;;21.26;36.48
47220;BME280;32961;51.936;4.788;2023-05-20T11:34:38;102178.53;;;21.29;36.05
47220;BME280;32961;51.936;4.788;2023-05-20T11:37:08;102176.56;;;21.38;35.60
47220;BME280;32961;51.936;4.788;2023-05-20T11:39:37;102171.78;;;21.55;35.06
47220;BME280;32961;51.936;4.788;2023-05-20T11:42:05;102184.28;;;21.51;35.42
47220;BME280;32961;51.936;4.788;2023-05-20T11:44:33;102171.38;;;21.67;35.32
47220;BME280;32961;51.936;4.788;2023-05-20T11:47:02;102165.19;;;21.64;35.95
47220;BME280;32961;51.936;4.788;2023-05-20T11:49:38;102175.94;;;21.59;35.99
47220;BME280;32961;51.936;4.788;2023-05-20T11:52:08;102174.84;;;21.37;38.13
47220;BME280;32961;51.936;4.788;2023-05-20T11:54:37;102175.78;;;21.53;37.12
47220;BME280;32961;51.936;4.788;2023-05-20T11:57:05;102171.75;;;21.63;35.67
47220;BME280;32961;51.936;4.788;2023-05-20T11:59:33;102162.34;;;21.50;36.81
47220;BME280;32961;51.936;4.788;2023-05-20T12:02:02;102160.41;;;21.58;37.03
47220;BME280;32961;51.936;4.788;2023-05-20T12:04:29;102162.78;;;21.61;36.57
47220;BME280;32961;51.936;4.788;2023-05-20T12:06:57;102161.53;;;21.41;36.42
47220;BME280;32961;51.936;4.788;2023-05-20T12:09:26;102156.00;;;21.41;36.63
47220;BME280;32961;51.936;4.788;2023-05-20T12:11:55;102151.22;;;21.58;36.70
47220;BME280;32961;51.936;4.788;2023-05-20T12:14:22;102145.44;;;21.68;36.06
47220;BME280;32961;51.936;4.788;2023-05-20T12:16:50;102143.19;;;21.86;36.41
47220;BME280;32961;51.936;4.788;2023-05-20T12:19:19;102151.06;;;22.12;36.95
47220;BME280;32961;51.936;4.788;2023-05-20T12:21:47;102156.03;;;22.32;35.15
47220;BME280;32961;51.936;4.788;2023-05-20T12:24:15;102136.81;;;22.16;35.22
47220;BME280;32961;51.936;4.788;2023-05-20T12:26:44;102147.59;;;22.25;34.92
47220;BME280;32961;51.936;4.788;2023-05-20T12:29:11;102146.59;;;22.41;34.91
47220;BME280;32961;51.936;4.788;2023-05-20T12:31:39;102142.06;;;22.25;34.65
47220;BME280;32961;51.936;4.788;2023-05-20T12:34:07;102143.44;;;22.30;35.60
47220;BME280;32961;51.936;4.788;2023-05-20T12:36:35;102156.13;;;22.39;36.48
47220;BME280;32961;51.936;4.788;2023-05-20T12:39:03;102140.38;;;22.24;35.86
47220;BME280;32961;51.936;4.788;2023-05-20T12:41:31;102138.25;;;22.11;36.19
47220;BME280;32961;51.936;4.788;2023-05-20T12:44:00;102143.50;;;22.06;36.65
47220;BME280;32961;51.936;4.788;2023-05-20T12:46:28;102133.75;;;21.95;37.50
47220;BME280;32961;51.936;4.788;2023-05-20T12:48:56;102134.56;;;21.66;37.19
47220;BME280;32961;51.936;4.788;2023-05-20T12:51:24;102148.47;;;21.58;37.98
47220;BME280;32961;51.936;4.788;2023-05-20T12:53:52;102134.38;;;21.68;37.44
47220;BME280;32961;51.936;4.788;2023-05-20T12:56:20;102125.63;;;21.79;36.65
47220;BME280;32961;51.936;4.788;2023-05-20T12:58:49;102133.47;;;21.90;37.51